California Horizon — WYB6335 — position and weather

sailwx.info

Track history (hours):
 
Tides and Currents Weather Stations Pressure Air Temp Water Temp Dewpoint Dewpoint Depression Visibility Wind Speed Wind Dir Waves Ship Positions

California Horizon

Owner: KYDAKA CORP, SEATTLE, WA. More information available from US FCC via Universal Licensing System and Coast Guard Vessel Documentation Center.

Last reported at 2017-Oct-14 11:56 UTC. Time now 2017-Oct-20 07:24 UTC.
Position N 48°22' W 124°37'.

Length 35 m; draft 11 m.

MMSI: 368222000.

Date/timePositionNaut miles runAvg speedWind from/ knotsBaromVisibWave heightAir tempDewpointWater temp
2017-Oct-14 11:56N 48°22' W 124°37'0 0.0
2017-Oct-14 11:30N 48°22' W 124°37'0 0.0
2017-Oct-14 11:00N 48°22' W 124°37'0 0.0
2017-Oct-14 10:30N 48°22' W 124°37'0 0.0
2017-Oct-14 10:00N 48°22' W 124°37'0 0.0
2017-Oct-14 09:30N 48°22' W 124°37'0 0.0
2017-Oct-14 09:00N 48°22' W 124°37'0 0.0
2017-Oct-14 08:30N 48°22' W 124°37'0 0.0
2017-Oct-14 08:00N 48°22' W 124°37'0 0.0
2017-Oct-14 07:30N 48°22' W 124°37'0 0.0
2017-Oct-14 07:00N 48°22' W 124°37'0 0.0
2017-Oct-14 06:30N 48°22' W 124°37'0 0.0
2017-Oct-14 06:00N 48°22' W 124°37'0 0.0
2017-Oct-14 05:30N 48°22' W 124°37'0 0.0
2017-Oct-14 05:00N 48°22' W 124°37'0 0.0
2017-Oct-14 04:30N 48°22' W 124°37'0 0.0
2017-Oct-14 04:00N 48°22' W 124°37'0 0.0
2017-Oct-14 03:30N 48°22' W 124°37'0 0.0
2017-Oct-14 03:00N 48°22' W 124°37'0 0.0
2017-Oct-14 02:30N 48°22' W 124°37'0 0.0
2017-Oct-14 02:00N 48°22' W 124°37'0 0.0
2017-Oct-14 01:28N 48°22' W 124°37'0 0.0
2017-Oct-14 01:00N 48°22' W 124°37'0 0.0
2017-Oct-14 00:28N 48°22' W 124°37'0 0.0
2017-Oct-13 23:56N 48°22' W 124°37'0 0.0
2017-Oct-13 23:28N 48°22' W 124°37'0 0.0
2017-Oct-13 23:00N 48°22' W 124°37'0 0.0
2017-Oct-13 22:30N 48°22' W 124°37'0 0.0
2017-Oct-13 22:00N 48°22' W 124°37'0 0.0
2017-Oct-13 21:30N 48°22' W 124°37'0 0.0
2017-Oct-13 21:00N 48°22' W 124°37'0 0.0
2017-Oct-13 20:30N 48°22' W 124°37'0 0.0
2017-Oct-13 20:00N 48°22' W 124°37'0 0.0
2017-Oct-13 19:30N 48°22' W 124°37'0 0.0
2017-Oct-13 19:00N 48°22' W 124°37'0 0.0
2017-Oct-13 18:30N 48°22' W 124°37'0 0.0
2017-Oct-13 18:00N 48°22' W 124°37'0 0.0
2017-Oct-13 17:30N 48°22' W 124°37'0 0.0
2017-Oct-13 17:00N 48°22' W 124°37'0 0.0
2017-Oct-13 16:29N 48°22' W 124°37'0 0.0
2017-Oct-13 15:59N 48°22' W 124°37'0 0.0
2017-Oct-13 15:29N 48°22' W 124°37'0 0.0
2017-Oct-13 15:00N 48°22' W 124°37'0 0.0
2017-Oct-13 14:30N 48°22' W 124°37'0 0.0
2017-Oct-13 14:00N 48°22' W 124°37'0 0.0
2017-Oct-13 13:28N 48°22' W 124°37'0 0.0
2017-Oct-13 13:00N 48°22' W 124°37'0 0.0
2017-Oct-13 12:30N 48°22' W 124°37'0 0.0
2017-Oct-13 12:00N 48°22' W 124°37'0 0.0
2017-Oct-13 11:30N 48°22' W 124°37'0 0.0
2017-Oct-13 11:00N 48°22' W 124°37'0 0.0
2017-Oct-13 10:30N 48°22' W 124°37'0 0.0
2017-Oct-13 10:00N 48°22' W 124°37'0 0.0
2017-Oct-13 09:30N 48°22' W 124°37'0 0.0
2017-Oct-13 09:00N 48°22' W 124°37'0 0.0
2017-Oct-13 08:30N 48°22' W 124°37'0 0.0
2017-Oct-13 08:00N 48°22' W 124°37'0 0.0
2017-Oct-13 07:30N 48°22' W 124°37'0 0.0
2017-Oct-13 07:00N 48°22' W 124°37'0 0.0
2017-Oct-13 06:30N 48°22' W 124°37'0 0.0
2017-Oct-13 06:00N 48°22' W 124°37'0 0.0
2017-Oct-13 05:30N 48°22' W 124°37'0 0.0
2017-Oct-13 05:00N 48°22' W 124°37'2 3.7
2017-Oct-13 04:30N 48°24' W 124°37'5 9.3
2017-Oct-13 03:59N 48°24' W 124°44'5 9.8
2017-Oct-13 03:29N 48°23' W 124°51'4 9.3
2017-Oct-13 03:00N 48°21' W 124°58'5 9.2
2017-Oct-13 02:30N 48°20' W 125°04'8 2.4
2017-Oct-12 23:08N 48°20' W 125°16'2 6.2
2017-Oct-12 22:47N 48°18' W 125°15'1 3.3
2017-Oct-12 22:29N 48°19' W 125°15'2 1.8
2017-Oct-12 21:37N 48°18' W 125°16'0 2.4
2017-Oct-12 21:29N 48°18' W 125°16'2 3.1
2017-Oct-12 20:46N 48°18' W 125°13'5 4.3
2017-Oct-12 19:32N 48°23' W 125°14'1 8.1
2017-Oct-12 19:23N 48°24' W 125°13'3 5.7
2017-Oct-12 18:55N 48°26' W 125°09'3 6.7
2017-Oct-12 18:30N 48°24' W 125°12'1 0.9
2017-Oct-12 17:54N 48°23' W 125°13'2 3.2
2017-Oct-12 17:20N 48°22' W 125°15'1 3.3
2017-Oct-12 17:00N 48°23' W 125°13'2 2.4
2017-Oct-12 16:12N 48°25' W 125°12'1 2.7
2017-Oct-12 15:56N 48°25' W 125°11'1 2.7
2017-Oct-12 15:29N 48°26' W 125°10'1 2.4
2017-Oct-12 14:56N 48°27' W 125°08'1 2.3
2017-Oct-12 14:22N 48°26' W 125°10'2 4.9
2017-Oct-12 14:00N 48°25' W 125°09'4 8.3
2017-Oct-12 13:30N 48°24' W 125°03'4 7.5
2017-Oct-12 12:58N 48°24' W 124°57'4 8.0
2017-Oct-12 12:30N 48°24' W 124°51'4 8.5
2017-Oct-12 12:00N 48°24' W 124°45'4 7.5
2017-Oct-12 11:30N 48°24' W 124°39'3 5.3
2017-Oct-12 11:00N 48°22' W 124°36'0 0.7
2017-Oct-12 10:30N 48°22' W 124°37'0 0.0
2017-Oct-12 10:00N 48°22' W 124°37'0 0.0
2017-Oct-12 09:30N 48°22' W 124°37'0 0.0
2017-Oct-12 09:00N 48°22' W 124°37'0 0.0
2017-Oct-12 08:30N 48°22' W 124°37'0 0.0
2017-Oct-12 08:00N 48°22' W 124°37'0 0.0
2017-Oct-12 07:30N 48°22' W 124°37'0 0.0
2017-Oct-12 07:00N 48°22' W 124°37'0 0.0
2017-Oct-12 06:30N 48°22' W 124°37'0 0.0
2017-Oct-12 06:00N 48°22' W 124°37'0 0.0
2017-Oct-12 05:30N 48°22' W 124°37'0 0.0
2017-Oct-12 05:00N 48°22' W 124°37'0 0.0
2017-Oct-12 04:30N 48°22' W 124°37'0 0.0
2017-Oct-12 04:00N 48°22' W 124°37'0 0.0
2017-Oct-12 03:30N 48°22' W 124°37'0 0.0
2017-Oct-12 03:00N 48°22' W 124°37'0 0.0
2017-Oct-12 02:30N 48°22' W 124°37'0 0.0
2017-Oct-12 02:00N 48°22' W 124°37'0 0.0
2017-Oct-12 01:30N 48°22' W 124°37'0 0.0
2017-Oct-12 01:00N 48°22' W 124°37'0 0.0
2017-Oct-12 00:30N 48°22' W 124°37'0 0.0
2017-Oct-12 00:00N 48°22' W 124°37'0 0.0
2017-Oct-11 23:30N 48°22' W 124°37'0 0.0
2017-Oct-11 23:00N 48°22' W 124°37'0 0.0
2017-Oct-11 22:30N 48°22' W 124°37'0 0.0
2017-Oct-11 22:00N 48°22' W 124°37'0 0.0
2017-Oct-11 21:30N 48°22' W 124°37'0 0.0
2017-Oct-11 21:00N 48°22' W 124°37'0 0.0
2017-Oct-11 20:30N 48°22' W 124°37'0 0.0
2017-Oct-11 20:00N 48°22' W 124°37'0 0.0
2017-Oct-11 19:30N 48°22' W 124°37'0 0.0
2017-Oct-11 19:00N 48°22' W 124°37'0 0.0
2017-Oct-11 18:30N 48°22' W 124°37'0 0.0
2017-Oct-11 18:00N 48°22' W 124°37'0 0.0
2017-Oct-11 17:30N 48°22' W 124°37'0 0.0
2017-Oct-11 17:00N 48°22' W 124°37'0 0.0
2017-Oct-11 00:00N 48°22' W 124°37'0 0.0
2017-Oct-10 23:30N 48°22' W 124°37'0 0.0
2017-Oct-10 23:00N 48°22' W 124°37'0 0.0
2017-Oct-10 22:30N 48°22' W 124°37'0 0.0
2017-Oct-10 22:00N 48°22' W 124°37'0 0.0
2017-Oct-10 21:30N 48°22' W 124°37'0 0.0
2017-Oct-10 21:00N 48°22' W 124°37'0 0.0
2017-Oct-10 20:30N 48°22' W 124°37'0 0.0
2017-Oct-10 20:00N 48°22' W 124°37'0 0.0
2017-Oct-10 19:30N 48°22' W 124°37'0 0.0
2017-Oct-10 19:00N 48°22' W 124°37'0 0.0
2017-Oct-10 18:30N 48°22' W 124°37'0 0.0
2017-Oct-10 18:00N 48°22' W 124°37'0 0.0
2017-Oct-10 17:30N 48°22' W 124°37'0 0.0
2017-Oct-10 17:00N 48°22' W 124°37'0 0.0
2017-Oct-10 16:30N 48°22' W 124°37'0 0.0
2017-Oct-10 16:00N 48°22' W 124°37'0 0.0
2017-Oct-10 15:30N 48°22' W 124°37'0 0.0
2017-Oct-10 15:00N 48°22' W 124°37'0 0.0
2017-Oct-10 14:00N 48°22' W 124°37'0 0.0
2017-Oct-10 13:30N 48°22' W 124°37'0 0.0
2017-Oct-10 13:00N 48°22' W 124°37'0 0.0
2017-Oct-10 12:30N 48°22' W 124°37'0 0.0
2017-Oct-10 12:00N 48°22' W 124°37'0 0.0
2017-Oct-10 11:30N 48°22' W 124°37'0 0.0
2017-Oct-10 11:00N 48°22' W 124°37'0 0.0
2017-Oct-10 10:30N 48°22' W 124°37'0 0.0
2017-Oct-10 10:00N 48°22' W 124°37'0 0.0
2017-Oct-10 09:30N 48°22' W 124°37'0 0.0
2017-Oct-10 09:00N 48°22' W 124°37'0 0.0
2017-Oct-10 08:30N 48°22' W 124°37'0 0.0
2017-Oct-10 08:00N 48°22' W 124°37'0 0.0
2017-Oct-10 07:30N 48°22' W 124°37'0 0.0
2017-Oct-10 07:00N 48°22' W 124°37'0 0.0
2017-Oct-10 06:30N 48°22' W 124°37'0 0.0
2017-Oct-10 06:00N 48°22' W 124°37'0 0.0
2017-Oct-10 05:30N 48°22' W 124°37'0 0.0
2017-Oct-10 05:00N 48°22' W 124°37'0 0.0
2017-Oct-10 04:30N 48°22' W 124°37'0 0.0
2017-Oct-10 04:00N 48°22' W 124°37'0 0.0
2017-Oct-10 03:30N 48°22' W 124°37'0 0.0
2017-Oct-10 03:00N 48°22' W 124°37'0 0.0
2017-Oct-10 02:30N 48°22' W 124°37'1 1.4
2017-Oct-10 02:00N 48°22' W 124°36'3 6.5
2017-Oct-10 01:30N 48°24' W 124°40'5 9.1
2017-Oct-10 00:56N 48°24' W 124°48'4 9.8
2017-Oct-10 00:29N 48°22' W 124°54'5 9.3
2017-Oct-09 23:59N 48°20' W 125°01'5 9.4
2017-Oct-09 23:30N 48°19' W 125°07'4 6.7
2017-Oct-09 22:57N 48°18' W 125°12'2 1.0
2017-Oct-09 20:51N 48°18' W 125°15'1 2.5
2017-Oct-09 20:29N 48°18' W 125°14'1 2.1
2017-Oct-09 19:59N 48°18' W 125°13'1 2.5
2017-Oct-09 19:25N 48°19' W 125°13'1 2.9
2017-Oct-09 18:57N 48°21' W 125°14'2 3.5
2017-Oct-09 18:30N 48°22' W 125°14'2 2.9
2017-Oct-09 17:58N 48°24' W 125°14'0 0.7
2017-Oct-09 17:30N 48°24' W 125°13'1 2.4
2017-Oct-09 17:00N 48°24' W 125°12'1 1.1
2017-Oct-09 16:24N 48°24' W 125°11'3 6.6
2017-Oct-09 16:00N 48°23' W 125°15'4 7.7
2017-Oct-09 15:30N 48°26' W 125°11'0 0.1
2017-Oct-09 14:47N 48°26' W 125°11'2 7.7
2017-Oct-09 14:30N 48°27' W 125°08'4 7.4
2017-Oct-09 14:00N 48°26' W 125°02'4 7.1
2017-Oct-09 13:30N 48°26' W 124°57'3 6.9
2017-Oct-09 13:00N 48°27' W 124°52'4 7.3
2017-Oct-09 12:30N 48°26' W 124°46'3 6.9
2017-Oct-09 12:00N 48°26' W 124°41'4 7.1
2017-Oct-09 11:30N 48°24' W 124°37'2 3.5
2017-Oct-09 11:00N 48°22' W 124°37'0 0.0
2017-Oct-09 10:30N 48°22' W 124°37'0 0.0
2017-Oct-09 10:00N 48°22' W 124°37'0 0.0
2017-Oct-09 09:30N 48°22' W 124°37'0 0.0
2017-Oct-09 09:00N 48°22' W 124°37'0 0.0
2017-Oct-09 08:30N 48°22' W 124°37'0 0.0
2017-Oct-09 08:00N 48°22' W 124°37'0 0.0
2017-Oct-09 07:30N 48°22' W 124°37'0 0.0
2017-Oct-09 07:00N 48°22' W 124°37'0 0.0
2017-Oct-09 06:30N 48°22' W 124°37'0 0.0
2017-Oct-09 06:00N 48°22' W 124°37'0 0.0
2017-Oct-09 05:30N 48°22' W 124°37'0 0.0
2017-Oct-09 05:00N 48°22' W 124°37'0 0.0
2017-Oct-09 04:30N 48°22' W 124°37'0 0.0
2017-Oct-09 04:00N 48°22' W 124°37'0 0.0
2017-Oct-09 03:30N 48°22' W 124°37'0 0.0
2017-Oct-09 03:00N 48°22' W 124°37'0 0.0
2017-Oct-09 02:30N 48°22' W 124°37'0 0.0
2017-Oct-09 02:00N 48°22' W 124°37'0 0.0
2017-Oct-09 01:30N 48°22' W 124°37'0 0.0
2017-Oct-09 01:00N 48°22' W 124°37'0 0.0
2017-Oct-09 00:30N 48°22' W 124°37'0 0.0
2017-Oct-09 00:00N 48°22' W 124°37'0 0.0
2017-Oct-08 23:30N 48°22' W 124°37'0 0.0
2017-Oct-08 23:00N 48°22' W 124°37'0 0.0
2017-Oct-08 22:30N 48°22' W 124°37'0 0.0
2017-Oct-08 22:00N 48°22' W 124°37'0 0.0
2017-Oct-08 21:30N 48°22' W 124°37'0 0.0
2017-Oct-08 21:00N 48°22' W 124°37'0 0.0
2017-Oct-08 20:30N 48°22' W 124°37'0 0.0
2017-Oct-08 20:00N 48°22' W 124°37'0 0.0
2017-Oct-08 19:30N 48°22' W 124°37'0 0.0
2017-Oct-08 19:00N 48°22' W 124°37'0 0.0
2017-Oct-08 18:30N 48°22' W 124°37'0 0.0
2017-Oct-08 18:00N 48°22' W 124°37'0 0.0
2017-Oct-08 17:30N 48°22' W 124°37'0 0.0
2017-Oct-08 17:00N 48°22' W 124°37'0 0.0
2017-Oct-08 16:30N 48°22' W 124°37'0 0.0
2017-Oct-08 16:00N 48°22' W 124°37'0 0.0
2017-Oct-08 15:30N 48°22' W 124°37'0 0.0
2017-Oct-08 15:00N 48°22' W 124°37'0 0.0
2017-Oct-08 14:30N 48°22' W 124°37'0 0.0
2017-Oct-08 14:00N 48°22' W 124°37'0 0.0
2017-Oct-08 13:30N 48°22' W 124°37'0 0.0
2017-Oct-08 13:00N 48°22' W 124°37'0 0.0
2017-Oct-08 12:30N 48°22' W 124°37'0 0.0
2017-Oct-08 12:00N 48°22' W 124°37'0 0.0
2017-Oct-08 11:30N 48°22' W 124°37'0 0.0
2017-Oct-08 11:00N 48°22' W 124°37'0 0.0
2017-Oct-08 10:30N 48°22' W 124°37'0 0.0
2017-Oct-08 10:00N 48°22' W 124°37'0 0.0
2017-Oct-08 09:30N 48°22' W 124°37'0 0.0
2017-Oct-08 09:00N 48°22' W 124°37'0 0.0
2017-Oct-08 08:30N 48°22' W 124°37'0 0.0
2017-Oct-08 08:00N 48°22' W 124°37'0 0.0
2017-Oct-08 07:30N 48°22' W 124°37'0 0.0
2017-Oct-08 07:00N 48°22' W 124°37'0 0.0
2017-Oct-08 06:30N 48°22' W 124°37'0 0.0
2017-Oct-08 06:00N 48°22' W 124°37'0 0.0
2017-Oct-08 05:30N 48°22' W 124°37'0 0.0
2017-Oct-08 05:00N 48°22' W 124°37'0 0.0
2017-Oct-08 04:30N 48°22' W 124°37'0 0.0
2017-Oct-08 04:00N 48°22' W 124°37'0 0.0
2017-Oct-08 03:30N 48°22' W 124°37'0 0.0
2017-Oct-08 03:00N 48°22' W 124°37'0 0.0
2017-Oct-08 02:30N 48°22' W 124°37'0 0.0
2017-Oct-08 02:00N 48°22' W 124°37'0 0.0
2017-Oct-08 01:30N 48°22' W 124°37'0 0.0
2017-Oct-08 01:00N 48°22' W 124°37'0 0.0
2017-Oct-08 00:30N 48°22' W 124°37'0 0.0
2017-Oct-08 00:00N 48°22' W 124°37'0 0.0
2017-Oct-07 23:30N 48°22' W 124°37'0 0.0
2017-Oct-07 23:00N 48°22' W 124°37'0 0.0
2017-Oct-07 22:30N 48°22' W 124°37'0 0.0
2017-Oct-07 22:00N 48°22' W 124°37'0 0.0
2017-Oct-07 21:30N 48°22' W 124°37'0 0.0
2017-Oct-07 21:00N 48°22' W 124°37'0 0.0
2017-Oct-07 20:30N 48°22' W 124°37'0 0.0
2017-Oct-07 20:00N 48°22' W 124°37'0 0.0
2017-Oct-07 19:30N 48°22' W 124°37'0 0.0
2017-Oct-07 19:00N 48°22' W 124°37'0 0.0
2017-Oct-07 18:30N 48°22' W 124°37'0 0.0
2017-Oct-07 18:00N 48°22' W 124°37'0 0.0
2017-Oct-07 17:30N 48°22' W 124°37'0 0.0
2017-Oct-07 17:00N 48°22' W 124°37'0 0.0
2017-Oct-07 16:30N 48°22' W 124°37'0 0.0
2017-Oct-07 16:00N 48°22' W 124°37'0 0.0
2017-Oct-07 15:30N 48°22' W 124°37'0 0.0
2017-Oct-07 15:00N 48°22' W 124°37'0 0.0
2017-Oct-07 14:30N 48°22' W 124°37'0 0.0
2017-Oct-07 14:00N 48°22' W 124°37'0 0.0
2017-Oct-07 13:30N 48°22' W 124°37'0 0.0
2017-Oct-07 13:00N 48°22' W 124°37'0 0.0
2017-Oct-07 12:30N 48°22' W 124°37'0 0.0
2017-Oct-07 12:00N 48°22' W 124°37'0 0.0
2017-Oct-07 11:30N 48°22' W 124°37'0 0.0
2017-Oct-07 11:00N 48°22' W 124°37'0 0.0
2017-Oct-07 10:30N 48°22' W 124°37'0 0.0
2017-Oct-07 10:00N 48°22' W 124°37'0 0.0
2017-Oct-07 09:30N 48°22' W 124°37'0 0.0
2017-Oct-07 09:00N 48°22' W 124°37'0 0.0
2017-Oct-07 08:30N 48°22' W 124°37'0 0.0
2017-Oct-07 08:00N 48°22' W 124°37'0 0.0
2017-Oct-07 07:30N 48°22' W 124°37'0 0.0
2017-Oct-07 07:00N 48°22' W 124°37'0 0.0
2017-Oct-07 06:30N 48°22' W 124°37'2 3.4
2017-Oct-07 06:00N 48°24' W 124°36'4 7.6
2017-Oct-07 05:30N 48°24' W 124°41'4 8.7
2017-Oct-07 05:00N 48°24' W 124°48'4 7.8
2017-Oct-07 04:28N 48°23' W 124°54'4 8.0
2017-Oct-07 03:58N 48°23' W 125°00'5 8.8
2017-Oct-07 03:26N 48°23' W 125°07'3 6.0
2017-Oct-07 03:00N 48°23' W 125°11'1 1.1
2017-Oct-07 02:29N 48°23' W 125°12'1 2.5
2017-Oct-07 02:00N 48°23' W 125°14'2 3.1
2017-Oct-07 01:27N 48°25' W 125°12'1 2.9
2017-Oct-07 01:00N 48°26' W 125°11'2 2.8
2017-Oct-07 00:26N 48°27' W 125°09'1 2.9
2017-Oct-07 00:00N 48°27' W 125°07'3 5.0
2017-Oct-06 23:22N 48°26' W 125°11'0 0.5
2017-Oct-06 22:57N 48°26' W 125°11'1 1.8
2017-Oct-06 22:30N 48°26' W 125°10'1 2.6
2017-Oct-06 21:59N 48°27' W 125°09'1 1.3
2017-Oct-06 21:29N 48°27' W 125°08'2 4.5
2017-Oct-06 21:00N 48°26' W 125°10'1 1.0
2017-Oct-06 20:23N 48°26' W 125°11'1 2.6
2017-Oct-06 19:57N 48°25' W 125°10'3 3.3
2017-Oct-06 19:02N 48°23' W 125°14'0 2.2
2017-Oct-06 18:54N 48°23' W 125°15'1 2.9
2017-Oct-06 18:28N 48°23' W 125°13'1 1.3
2017-Oct-06 18:00N 48°24' W 125°13'1 2.5
2017-Oct-06 17:29N 48°25' W 125°12'1 1.4
2017-Oct-06 17:00N 48°25' W 125°11'2 2.5
2017-Oct-06 16:23N 48°24' W 125°12'1 1.0
2017-Oct-06 15:50N 48°24' W 125°13'1 3.5
2017-Oct-06 15:30N 48°23' W 125°14'4 8.6
2017-Oct-06 14:59N 48°26' W 125°10'1 2.0
2017-Oct-06 14:30N 48°25' W 125°10'3 5.0
2017-Oct-06 14:00N 48°24' W 125°06'4 8.2
2017-Oct-06 13:30N 48°24' W 125°00'4 8.2
2017-Oct-06 12:59N 48°24' W 124°54'4 8.1
2017-Oct-06 12:30N 48°24' W 124°48'4 8.6
2017-Oct-06 11:59N 48°24' W 124°41'3 6.6
2017-Oct-06 11:30N 48°24' W 124°36'2 3.3
2017-Oct-06 11:00N 48°22' W 124°37'0 0.0
2017-Oct-06 10:30N 48°22' W 124°37'0 0.0
2017-Oct-06 10:00N 48°22' W 124°37'0 0.0
2017-Oct-06 09:30N 48°22' W 124°37'0 0.0
2017-Oct-06 09:00N 48°22' W 124°37'0 0.0
2017-Oct-06 08:30N 48°22' W 124°37'0 0.0
2017-Oct-06 08:00N 48°22' W 124°37'0 0.0
2017-Oct-06 07:30N 48°22' W 124°37'0 0.0
2017-Oct-06 07:00N 48°22' W 124°37'0 0.0
2017-Oct-06 06:30N 48°22' W 124°37'0 0.0
2017-Oct-06 06:00N 48°22' W 124°37'0 0.0
2017-Oct-06 05:30N 48°22' W 124°37'0 0.0
2017-Oct-06 05:00N 48°22' W 124°37'0 0.0
2017-Oct-06 04:30N 48°22' W 124°37'0 0.0
2017-Oct-06 04:00N 48°22' W 124°37'0 0.0
2017-Oct-06 03:30N 48°22' W 124°37'0 0.0
2017-Oct-06 03:00N 48°22' W 124°37'0 0.0
2017-Oct-06 02:30N 48°22' W 124°37'0 0.0
2017-Oct-06 02:00N 48°22' W 124°37'0 0.0
2017-Oct-06 01:30N 48°22' W 124°37'0 0.0
2017-Oct-06 01:00N 48°22' W 124°37'0 0.0
2017-Oct-06 00:30N 48°22' W 124°37'0 0.0
2017-Oct-06 00:00N 48°22' W 124°37'0 0.0
2017-Oct-05 23:30N 48°22' W 124°37'0 0.0
2017-Oct-05 23:00N 48°22' W 124°37'0 0.0
2017-Oct-05 22:30N 48°22' W 124°37'0 0.0
2017-Oct-05 22:00N 48°22' W 124°37'0 0.0
2017-Oct-05 21:30N 48°22' W 124°37'0 0.0
2017-Oct-05 21:00N 48°22' W 124°37'0 0.0
2017-Oct-05 20:30N 48°22' W 124°37'0 0.0
2017-Oct-05 20:00N 48°22' W 124°37'0 0.0
2017-Oct-05 19:30N 48°22' W 124°37'0 0.0
2017-Oct-05 19:00N 48°22' W 124°37'0 0.0
2017-Oct-05 18:30N 48°22' W 124°37'0 0.0
2017-Oct-05 18:00N 48°22' W 124°37'0 0.0
2017-Oct-05 17:30N 48°22' W 124°37'0 0.0
2017-Oct-05 17:00N 48°22' W 124°37'0 0.0
2017-Oct-05 15:30N 48°22' W 124°37'0 0.0
2017-Oct-05 15:00N 48°22' W 124°37'0 0.0
2017-Oct-05 14:30N 48°22' W 124°37'0 0.0
2017-Oct-05 14:00N 48°22' W 124°37'0 0.0
2017-Oct-05 13:30N 48°22' W 124°37'0 0.0
2017-Oct-05 13:00N 48°22' W 124°37'0 0.0
2017-Oct-05 12:30N 48°22' W 124°37'0 0.0
2017-Oct-05 12:00N 48°22' W 124°37'0 0.0
2017-Oct-05 11:30N 48°22' W 124°37'0 0.0
2017-Oct-05 11:00N 48°22' W 124°37'0 0.0
2017-Oct-05 10:30N 48°22' W 124°37'0 0.0
2017-Oct-05 10:00N 48°22' W 124°37'0 0.0
2017-Oct-05 09:30N 48°22' W 124°37'0 0.0
2017-Oct-05 09:00N 48°22' W 124°37'0 0.0
2017-Oct-05 08:30N 48°22' W 124°37'0 0.0
2017-Oct-05 08:00N 48°22' W 124°37'0 0.0
2017-Oct-05 07:30N 48°22' W 124°37'0 0.0
2017-Oct-05 07:00N 48°22' W 124°37'0 0.0
2017-Oct-05 06:30N 48°22' W 124°37'0 0.0
2017-Oct-05 06:00N 48°22' W 124°37'0 0.0
2017-Oct-05 05:30N 48°22' W 124°37'0 0.0
2017-Oct-05 05:00N 48°22' W 124°37'0 0.0
2017-Oct-05 04:30N 48°22' W 124°37'0 0.0
2017-Oct-05 04:00N 48°22' W 124°37'0 0.0
2017-Oct-05 03:30N 48°22' W 124°37'0 0.0
2017-Oct-05 03:00N 48°22' W 124°37'0 0.0
2017-Oct-05 02:30N 48°22' W 124°37'0 0.0
2017-Oct-05 02:00N 48°22' W 124°37'0 0.0
2017-Oct-05 01:30N 48°22' W 124°37'0 0.0
2017-Oct-05 01:00N 48°22' W 124°37'0 0.0
2017-Oct-05 00:30N 48°22' W 124°37'0 0.0
2017-Oct-05 00:00N 48°22' W 124°37'0 0.0
2017-Oct-04 23:30N 48°22' W 124°37'0 0.0
2017-Oct-04 23:00N 48°22' W 124°37'0 0.0
2017-Oct-04 22:30N 48°22' W 124°37'0 0.0
2017-Oct-04 22:00N 48°22' W 124°37'0 0.0
2017-Oct-04 21:30N 48°22' W 124°37'0 0.0
2017-Oct-04 21:00N 48°22' W 124°37'0 0.0
2017-Oct-04 20:30N 48°22' W 124°37'0 0.0
2017-Oct-04 20:00N 48°22' W 124°37'0 0.0
2017-Oct-04 19:30N 48°22' W 124°37'0 0.0
2017-Oct-04 19:00N 48°22' W 124°37'0 0.0
2017-Oct-04 18:30N 48°22' W 124°37'0 0.0
2017-Oct-04 18:00N 48°22' W 124°37'0 0.0
2017-Oct-04 17:30N 48°22' W 124°37'0 0.0
2017-Oct-04 17:00N 48°22' W 124°37'0 0.0
2017-Oct-04 16:30N 48°22' W 124°37'0 0.0
2017-Oct-04 16:00N 48°22' W 124°37'0 0.0
2017-Oct-04 15:30N 48°22' W 124°37'0 0.0
2017-Oct-04 15:00N 48°22' W 124°37'0 0.0
2017-Oct-04 14:30N 48°22' W 124°37'0 0.0
2017-Oct-04 14:00N 48°22' W 124°37'0 0.0
2017-Oct-04 13:30N 48°22' W 124°37'0 0.0
2017-Oct-04 13:00N 48°22' W 124°37'0 0.0
2017-Oct-04 12:30N 48°22' W 124°37'0 0.0
2017-Oct-04 12:00N 48°22' W 124°37'  
Track history (hours):
 
Tides and Currents Weather Stations Pressure Air Temp Water Temp Dewpoint Dewpoint Depression Visibility Wind Speed Wind Dir Waves Ship Positions

California Horizon

Owner: KYDAKA CORP, SEATTLE, WA. More information available from US FCC via Universal Licensing System and Coast Guard Vessel Documentation Center.

Last reported at 2017-Oct-14 11:56 UTC. Time now 2017-Oct-20 07:24 UTC.
Position N 48°22' W 124°37'.

Length 35 m; draft 11 m.

MMSI: 368222000.

Date/timePositionNaut miles runAvg speedWind from/ knotsBaromVisibWave heightAir tempDewpointWater temp
2017-Oct-14 11:56N 48°22' W 124°37'0 0.0
2017-Oct-14 11:30N 48°22' W 124°37'0 0.0
2017-Oct-14 11:00N 48°22' W 124°37'0 0.0
2017-Oct-14 10:30N 48°22' W 124°37'0 0.0
2017-Oct-14 10:00N 48°22' W 124°37'0 0.0
2017-Oct-14 09:30N 48°22' W 124°37'0 0.0
2017-Oct-14 09:00N 48°22' W 124°37'0 0.0
2017-Oct-14 08:30N 48°22' W 124°37'0 0.0
2017-Oct-14 08:00N 48°22' W 124°37'0 0.0
2017-Oct-14 07:30N 48°22' W 124°37'0 0.0
2017-Oct-14 07:00N 48°22' W 124°37'0 0.0
2017-Oct-14 06:30N 48°22' W 124°37'0 0.0
2017-Oct-14 06:00N 48°22' W 124°37'0 0.0
2017-Oct-14 05:30N 48°22' W 124°37'0 0.0
2017-Oct-14 05:00N 48°22' W 124°37'0 0.0
2017-Oct-14 04:30N 48°22' W 124°37'0 0.0
2017-Oct-14 04:00N 48°22' W 124°37'0 0.0
2017-Oct-14 03:30N 48°22' W 124°37'0 0.0
2017-Oct-14 03:00N 48°22' W 124°37'0 0.0
2017-Oct-14 02:30N 48°22' W 124°37'0 0.0
2017-Oct-14 02:00N 48°22' W 124°37'0 0.0
2017-Oct-14 01:28N 48°22' W 124°37'0 0.0
2017-Oct-14 01:00N 48°22' W 124°37'0 0.0
2017-Oct-14 00:28N 48°22' W 124°37'0 0.0
2017-Oct-13 23:56N 48°22' W 124°37'0 0.0
2017-Oct-13 23:28N 48°22' W 124°37'0 0.0
2017-Oct-13 23:00N 48°22' W 124°37'0 0.0
2017-Oct-13 22:30N 48°22' W 124°37'0 0.0
2017-Oct-13 22:00N 48°22' W 124°37'0 0.0
2017-Oct-13 21:30N 48°22' W 124°37'0 0.0
2017-Oct-13 21:00N 48°22' W 124°37'0 0.0
2017-Oct-13 20:30N 48°22' W 124°37'0 0.0
2017-Oct-13 20:00N 48°22' W 124°37'0 0.0
2017-Oct-13 19:30N 48°22' W 124°37'0 0.0
2017-Oct-13 19:00N 48°22' W 124°37'0 0.0
2017-Oct-13 18:30N 48°22' W 124°37'0 0.0
2017-Oct-13 18:00N 48°22' W 124°37'0 0.0
2017-Oct-13 17:30N 48°22' W 124°37'0 0.0
2017-Oct-13 17:00N 48°22' W 124°37'0 0.0
2017-Oct-13 16:29N 48°22' W 124°37'0 0.0
2017-Oct-13 15:59N 48°22' W 124°37'0 0.0
2017-Oct-13 15:29N 48°22' W 124°37'0 0.0
2017-Oct-13 15:00N 48°22' W 124°37'0 0.0
2017-Oct-13 14:30N 48°22' W 124°37'0 0.0
2017-Oct-13 14:00N 48°22' W 124°37'0 0.0
2017-Oct-13 13:28N 48°22' W 124°37'0 0.0
2017-Oct-13 13:00N 48°22' W 124°37'0 0.0
2017-Oct-13 12:30N 48°22' W 124°37'0 0.0
2017-Oct-13 12:00N 48°22' W 124°37'0 0.0
2017-Oct-13 11:30N 48°22' W 124°37'0 0.0
2017-Oct-13 11:00N 48°22' W 124°37'0 0.0
2017-Oct-13 10:30N 48°22' W 124°37'0 0.0
2017-Oct-13 10:00N 48°22' W 124°37'0 0.0
2017-Oct-13 09:30N 48°22' W 124°37'0 0.0
2017-Oct-13 09:00N 48°22' W 124°37'0 0.0
2017-Oct-13 08:30N 48°22' W 124°37'0 0.0
2017-Oct-13 08:00N 48°22' W 124°37'0 0.0
2017-Oct-13 07:30N 48°22' W 124°37'0 0.0
2017-Oct-13 07:00N 48°22' W 124°37'0 0.0
2017-Oct-13 06:30N 48°22' W 124°37'0 0.0
2017-Oct-13 06:00N 48°22' W 124°37'0 0.0
2017-Oct-13 05:30N 48°22' W 124°37'0 0.0
2017-Oct-13 05:00N 48°22' W 124°37'2 3.7
2017-Oct-13 04:30N 48°24' W 124°37'5 9.3
2017-Oct-13 03:59N 48°24' W 124°44'5 9.8
2017-Oct-13 03:29N 48°23' W 124°51'4 9.3
2017-Oct-13 03:00N 48°21' W 124°58'5 9.2
2017-Oct-13 02:30N 48°20' W 125°04'8 2.4
2017-Oct-12 23:08N 48°20' W 125°16'2 6.2
2017-Oct-12 22:47N 48°18' W 125°15'1 3.3
2017-Oct-12 22:29N 48°19' W 125°15'2 1.8
2017-Oct-12 21:37N 48°18' W 125°16'0 2.4
2017-Oct-12 21:29N 48°18' W 125°16'2 3.1
2017-Oct-12 20:46N 48°18' W 125°13'5 4.3
2017-Oct-12 19:32N 48°23' W 125°14'1 8.1
2017-Oct-12 19:23N 48°24' W 125°13'3 5.7
2017-Oct-12 18:55N 48°26' W 125°09'3 6.7
2017-Oct-12 18:30N 48°24' W 125°12'1 0.9
2017-Oct-12 17:54N 48°23' W 125°13'2 3.2
2017-Oct-12 17:20N 48°22' W 125°15'1 3.3
2017-Oct-12 17:00N 48°23' W 125°13'2 2.4
2017-Oct-12 16:12N 48°25' W 125°12'1 2.7
2017-Oct-12 15:56N 48°25' W 125°11'1 2.7
2017-Oct-12 15:29N 48°26' W 125°10'1 2.4
2017-Oct-12 14:56N 48°27' W 125°08'1 2.3
2017-Oct-12 14:22N 48°26' W 125°10'2 4.9
2017-Oct-12 14:00N 48°25' W 125°09'4 8.3
2017-Oct-12 13:30N 48°24' W 125°03'4 7.5
2017-Oct-12 12:58N 48°24' W 124°57'4 8.0
2017-Oct-12 12:30N 48°24' W 124°51'4 8.5
2017-Oct-12 12:00N 48°24' W 124°45'4 7.5
2017-Oct-12 11:30N 48°24' W 124°39'3 5.3
2017-Oct-12 11:00N 48°22' W 124°36'0 0.7
2017-Oct-12 10:30N 48°22' W 124°37'0 0.0
2017-Oct-12 10:00N 48°22' W 124°37'0 0.0
2017-Oct-12 09:30N 48°22' W 124°37'0 0.0
2017-Oct-12 09:00N 48°22' W 124°37'0 0.0
2017-Oct-12 08:30N 48°22' W 124°37'0 0.0
2017-Oct-12 08:00N 48°22' W 124°37'0 0.0
2017-Oct-12 07:30N 48°22' W 124°37'0 0.0
2017-Oct-12 07:00N 48°22' W 124°37'0 0.0
2017-Oct-12 06:30N 48°22' W 124°37'0 0.0
2017-Oct-12 06:00N 48°22' W 124°37'0 0.0
2017-Oct-12 05:30N 48°22' W 124°37'0 0.0
2017-Oct-12 05:00N 48°22' W 124°37'0 0.0
2017-Oct-12 04:30N 48°22' W 124°37'0 0.0
2017-Oct-12 04:00N 48°22' W 124°37'0 0.0
2017-Oct-12 03:30N 48°22' W 124°37'0 0.0
2017-Oct-12 03:00N 48°22' W 124°37'0 0.0
2017-Oct-12 02:30N 48°22' W 124°37'0 0.0
2017-Oct-12 02:00N 48°22' W 124°37'0 0.0
2017-Oct-12 01:30N 48°22' W 124°37'0 0.0
2017-Oct-12 01:00N 48°22' W 124°37'0 0.0
2017-Oct-12 00:30N 48°22' W 124°37'0 0.0
2017-Oct-12 00:00N 48°22' W 124°37'0 0.0
2017-Oct-11 23:30N 48°22' W 124°37'0 0.0
2017-Oct-11 23:00N 48°22' W 124°37'0 0.0
2017-Oct-11 22:30N 48°22' W 124°37'0 0.0
2017-Oct-11 22:00N 48°22' W 124°37'0 0.0
2017-Oct-11 21:30N 48°22' W 124°37'0 0.0
2017-Oct-11 21:00N 48°22' W 124°37'0 0.0
2017-Oct-11 20:30N 48°22' W 124°37'0 0.0
2017-Oct-11 20:00N 48°22' W 124°37'0 0.0
2017-Oct-11 19:30N 48°22' W 124°37'0 0.0
2017-Oct-11 19:00N 48°22' W 124°37'0 0.0
2017-Oct-11 18:30N 48°22' W 124°37'0 0.0
2017-Oct-11 18:00N 48°22' W 124°37'0 0.0
2017-Oct-11 17:30N 48°22' W 124°37'0 0.0
2017-Oct-11 17:00N 48°22' W 124°37'0 0.0
2017-Oct-11 00:00N 48°22' W 124°37'0 0.0
2017-Oct-10 23:30N 48°22' W 124°37'0 0.0
2017-Oct-10 23:00N 48°22' W 124°37'0 0.0
2017-Oct-10 22:30N 48°22' W 124°37'0 0.0
2017-Oct-10 22:00N 48°22' W 124°37'0 0.0
2017-Oct-10 21:30N 48°22' W 124°37'0 0.0
2017-Oct-10 21:00N 48°22' W 124°37'0 0.0
2017-Oct-10 20:30N 48°22' W 124°37'0 0.0
2017-Oct-10 20:00N 48°22' W 124°37'0 0.0
2017-Oct-10 19:30N 48°22' W 124°37'0 0.0
2017-Oct-10 19:00N 48°22' W 124°37'0 0.0
2017-Oct-10 18:30N 48°22' W 124°37'0 0.0
2017-Oct-10 18:00N 48°22' W 124°37'0 0.0
2017-Oct-10 17:30N 48°22' W 124°37'0 0.0
2017-Oct-10 17:00N 48°22' W 124°37'0 0.0
2017-Oct-10 16:30N 48°22' W 124°37'0 0.0
2017-Oct-10 16:00N 48°22' W 124°37'0 0.0
2017-Oct-10 15:30N 48°22' W 124°37'0 0.0
2017-Oct-10 15:00N 48°22' W 124°37'0 0.0
2017-Oct-10 14:00N 48°22' W 124°37'0 0.0
2017-Oct-10 13:30N 48°22' W 124°37'0 0.0
2017-Oct-10 13:00N 48°22' W 124°37'0 0.0
2017-Oct-10 12:30N 48°22' W 124°37'0 0.0
2017-Oct-10 12:00N 48°22' W 124°37'0 0.0
2017-Oct-10 11:30N 48°22' W 124°37'0 0.0
2017-Oct-10 11:00N 48°22' W 124°37'0 0.0
2017-Oct-10 10:30N 48°22' W 124°37'0 0.0
2017-Oct-10 10:00N 48°22' W 124°37'0 0.0
2017-Oct-10 09:30N 48°22' W 124°37'0 0.0
2017-Oct-10 09:00N 48°22' W 124°37'0 0.0
2017-Oct-10 08:30N 48°22' W 124°37'0 0.0
2017-Oct-10 08:00N 48°22' W 124°37'0 0.0
2017-Oct-10 07:30N 48°22' W 124°37'0 0.0
2017-Oct-10 07:00N 48°22' W 124°37'0 0.0
2017-Oct-10 06:30N 48°22' W 124°37'0 0.0
2017-Oct-10 06:00N 48°22' W 124°37'0 0.0
2017-Oct-10 05:30N 48°22' W 124°37'0 0.0
2017-Oct-10 05:00N 48°22' W 124°37'0 0.0
2017-Oct-10 04:30N 48°22' W 124°37'0 0.0
2017-Oct-10 04:00N 48°22' W 124°37'0 0.0
2017-Oct-10 03:30N 48°22' W 124°37'0 0.0
2017-Oct-10 03:00N 48°22' W 124°37'0 0.0
2017-Oct-10 02:30N 48°22' W 124°37'1 1.4
2017-Oct-10 02:00N 48°22' W 124°36'3 6.5
2017-Oct-10 01:30N 48°24' W 124°40'5 9.1
2017-Oct-10 00:56N 48°24' W 124°48'4 9.8
2017-Oct-10 00:29N 48°22' W 124°54'5 9.3
2017-Oct-09 23:59N 48°20' W 125°01'5 9.4
2017-Oct-09 23:30N 48°19' W 125°07'4 6.7
2017-Oct-09 22:57N 48°18' W 125°12'2 1.0
2017-Oct-09 20:51N 48°18' W 125°15'1 2.5
2017-Oct-09 20:29N 48°18' W 125°14'1 2.1
2017-Oct-09 19:59N 48°18' W 125°13'1 2.5
2017-Oct-09 19:25N 48°19' W 125°13'1 2.9
2017-Oct-09 18:57N 48°21' W 125°14'2 3.5
2017-Oct-09 18:30N 48°22' W 125°14'2 2.9
2017-Oct-09 17:58N 48°24' W 125°14'0 0.7
2017-Oct-09 17:30N 48°24' W 125°13'1 2.4
2017-Oct-09 17:00N 48°24' W 125°12'1 1.1
2017-Oct-09 16:24N 48°24' W 125°11'3 6.6
2017-Oct-09 16:00N 48°23' W 125°15'4 7.7
2017-Oct-09 15:30N 48°26' W 125°11'0 0.1
2017-Oct-09 14:47N 48°26' W 125°11'2 7.7
2017-Oct-09 14:30N 48°27' W 125°08'4 7.4
2017-Oct-09 14:00N 48°26' W 125°02'4 7.1
2017-Oct-09 13:30N 48°26' W 124°57'3 6.9
2017-Oct-09 13:00N 48°27' W 124°52'4 7.3
2017-Oct-09 12:30N 48°26' W 124°46'3 6.9
2017-Oct-09 12:00N 48°26' W 124°41'4 7.1
2017-Oct-09 11:30N 48°24' W 124°37'2 3.5
2017-Oct-09 11:00N 48°22' W 124°37'0 0.0
2017-Oct-09 10:30N 48°22' W 124°37'0 0.0
2017-Oct-09 10:00N 48°22' W 124°37'0 0.0
2017-Oct-09 09:30N 48°22' W 124°37'0 0.0
2017-Oct-09 09:00N 48°22' W 124°37'0 0.0
2017-Oct-09 08:30N 48°22' W 124°37'0 0.0
2017-Oct-09 08:00N 48°22' W 124°37'0 0.0
2017-Oct-09 07:30N 48°22' W 124°37'0 0.0
2017-Oct-09 07:00N 48°22' W 124°37'0 0.0
2017-Oct-09 06:30N 48°22' W 124°37'0 0.0
2017-Oct-09 06:00N 48°22' W 124°37'0 0.0
2017-Oct-09 05:30N 48°22' W 124°37'0 0.0
2017-Oct-09 05:00N 48°22' W 124°37'0 0.0
2017-Oct-09 04:30N 48°22' W 124°37'0 0.0
2017-Oct-09 04:00N 48°22' W 124°37'0 0.0
2017-Oct-09 03:30N 48°22' W 124°37'0 0.0
2017-Oct-09 03:00N 48°22' W 124°37'0 0.0
2017-Oct-09 02:30N 48°22' W 124°37'0 0.0
2017-Oct-09 02:00N 48°22' W 124°37'0 0.0
2017-Oct-09 01:30N 48°22' W 124°37'0 0.0
2017-Oct-09 01:00N 48°22' W 124°37'0 0.0
2017-Oct-09 00:30N 48°22' W 124°37'0 0.0
2017-Oct-09 00:00N 48°22' W 124°37'0 0.0
2017-Oct-08 23:30N 48°22' W 124°37'0 0.0
2017-Oct-08 23:00N 48°22' W 124°37'0 0.0
2017-Oct-08 22:30N 48°22' W 124°37'0 0.0
2017-Oct-08 22:00N 48°22' W 124°37'0 0.0
2017-Oct-08 21:30N 48°22' W 124°37'0 0.0
2017-Oct-08 21:00N 48°22' W 124°37'0 0.0
2017-Oct-08 20:30N 48°22' W 124°37'0 0.0
2017-Oct-08 20:00N 48°22' W 124°37'0 0.0
2017-Oct-08 19:30N 48°22' W 124°37'0 0.0
2017-Oct-08 19:00N 48°22' W 124°37'0 0.0
2017-Oct-08 18:30N 48°22' W 124°37'0 0.0
2017-Oct-08 18:00N 48°22' W 124°37'0 0.0
2017-Oct-08 17:30N 48°22' W 124°37'0 0.0
2017-Oct-08 17:00N 48°22' W 124°37'0 0.0
2017-Oct-08 16:30N 48°22' W 124°37'0 0.0
2017-Oct-08 16:00N 48°22' W 124°37'0 0.0
2017-Oct-08 15:30N 48°22' W 124°37'0 0.0
2017-Oct-08 15:00N 48°22' W 124°37'0 0.0
2017-Oct-08 14:30N 48°22' W 124°37'0 0.0
2017-Oct-08 14:00N 48°22' W 124°37'0 0.0
2017-Oct-08 13:30N 48°22' W 124°37'0 0.0
2017-Oct-08 13:00N 48°22' W 124°37'0 0.0
2017-Oct-08 12:30N 48°22' W 124°37'0 0.0
2017-Oct-08 12:00N 48°22' W 124°37'0 0.0
2017-Oct-08 11:30N 48°22' W 124°37'0 0.0
2017-Oct-08 11:00N 48°22' W 124°37'0 0.0
2017-Oct-08 10:30N 48°22' W 124°37'0 0.0
2017-Oct-08 10:00N 48°22' W 124°37'0 0.0
2017-Oct-08 09:30N 48°22' W 124°37'0 0.0
2017-Oct-08 09:00N 48°22' W 124°37'0 0.0
2017-Oct-08 08:30N 48°22' W 124°37'0 0.0
2017-Oct-08 08:00N 48°22' W 124°37'0 0.0
2017-Oct-08 07:30N 48°22' W 124°37'0 0.0
2017-Oct-08 07:00N 48°22' W 124°37'0 0.0
2017-Oct-08 06:30N 48°22' W 124°37'0 0.0
2017-Oct-08 06:00N 48°22' W 124°37'0 0.0
2017-Oct-08 05:30N 48°22' W 124°37'0 0.0
2017-Oct-08 05:00N 48°22' W 124°37'0 0.0
2017-Oct-08 04:30N 48°22' W 124°37'0 0.0
2017-Oct-08 04:00N 48°22' W 124°37'0 0.0
2017-Oct-08 03:30N 48°22' W 124°37'0 0.0
2017-Oct-08 03:00N 48°22' W 124°37'0 0.0
2017-Oct-08 02:30N 48°22' W 124°37'0 0.0
2017-Oct-08 02:00N 48°22' W 124°37'0 0.0
2017-Oct-08 01:30N 48°22' W 124°37'0 0.0
2017-Oct-08 01:00N 48°22' W 124°37'0 0.0
2017-Oct-08 00:30N 48°22' W 124°37'0 0.0
2017-Oct-08 00:00N 48°22' W 124°37'0 0.0
2017-Oct-07 23:30N 48°22' W 124°37'0 0.0
2017-Oct-07 23:00N 48°22' W 124°37'0 0.0
2017-Oct-07 22:30N 48°22' W 124°37'0 0.0
2017-Oct-07 22:00N 48°22' W 124°37'0 0.0
2017-Oct-07 21:30N 48°22' W 124°37'0 0.0
2017-Oct-07 21:00N 48°22' W 124°37'0 0.0
2017-Oct-07 20:30N 48°22' W 124°37'0 0.0
2017-Oct-07 20:00N 48°22' W 124°37'0 0.0
2017-Oct-07 19:30N 48°22' W 124°37'0 0.0
2017-Oct-07 19:00N 48°22' W 124°37'0 0.0
2017-Oct-07 18:30N 48°22' W 124°37'0 0.0
2017-Oct-07 18:00N 48°22' W 124°37'0 0.0
2017-Oct-07 17:30N 48°22' W 124°37'0 0.0
2017-Oct-07 17:00N 48°22' W 124°37'0 0.0
2017-Oct-07 16:30N 48°22' W 124°37'0 0.0
2017-Oct-07 16:00N 48°22' W 124°37'0 0.0
2017-Oct-07 15:30N 48°22' W 124°37'0 0.0
2017-Oct-07 15:00N 48°22' W 124°37'0 0.0
2017-Oct-07 14:30N 48°22' W 124°37'0 0.0
2017-Oct-07 14:00N 48°22' W 124°37'0 0.0
2017-Oct-07 13:30N 48°22' W 124°37'0 0.0
2017-Oct-07 13:00N 48°22' W 124°37'0 0.0
2017-Oct-07 12:30N 48°22' W 124°37'0 0.0
2017-Oct-07 12:00N 48°22' W 124°37'0 0.0
2017-Oct-07 11:30N 48°22' W 124°37'0 0.0
2017-Oct-07 11:00N 48°22' W 124°37'0 0.0
2017-Oct-07 10:30N 48°22' W 124°37'0 0.0
2017-Oct-07 10:00N 48°22' W 124°37'0 0.0
2017-Oct-07 09:30N 48°22' W 124°37'0 0.0
2017-Oct-07 09:00N 48°22' W 124°37'0 0.0
2017-Oct-07 08:30N 48°22' W 124°37'0 0.0
2017-Oct-07 08:00N 48°22' W 124°37'0 0.0
2017-Oct-07 07:30N 48°22' W 124°37'0 0.0
2017-Oct-07 07:00N 48°22' W 124°37'0 0.0
2017-Oct-07 06:30N 48°22' W 124°37'2 3.4
2017-Oct-07 06:00N 48°24' W 124°36'4 7.6
2017-Oct-07 05:30N 48°24' W 124°41'4 8.7
2017-Oct-07 05:00N 48°24' W 124°48'4 7.8
2017-Oct-07 04:28N 48°23' W 124°54'4 8.0
2017-Oct-07 03:58N 48°23' W 125°00'5 8.8
2017-Oct-07 03:26N 48°23' W 125°07'3 6.0
2017-Oct-07 03:00N 48°23' W 125°11'1 1.1
2017-Oct-07 02:29N 48°23' W 125°12'1 2.5
2017-Oct-07 02:00N 48°23' W 125°14'2 3.1
2017-Oct-07 01:27N 48°25' W 125°12'1 2.9
2017-Oct-07 01:00N 48°26' W 125°11'2 2.8
2017-Oct-07 00:26N 48°27' W 125°09'1 2.9
2017-Oct-07 00:00N 48°27' W 125°07'3 5.0
2017-Oct-06 23:22N 48°26' W 125°11'0 0.5
2017-Oct-06 22:57N 48°26' W 125°11'1 1.8
2017-Oct-06 22:30N 48°26' W 125°10'1 2.6
2017-Oct-06 21:59N 48°27' W 125°09'1 1.3
2017-Oct-06 21:29N 48°27' W 125°08'2 4.5
2017-Oct-06 21:00N 48°26' W 125°10'1 1.0
2017-Oct-06 20:23N 48°26' W 125°11'1 2.6
2017-Oct-06 19:57N 48°25' W 125°10'3 3.3
2017-Oct-06 19:02N 48°23' W 125°14'0 2.2
2017-Oct-06 18:54N 48°23' W 125°15'1 2.9
2017-Oct-06 18:28N 48°23' W 125°13'1 1.3
2017-Oct-06 18:00N 48°24' W 125°13'1 2.5
2017-Oct-06 17:29N 48°25' W 125°12'1 1.4
2017-Oct-06 17:00N 48°25' W 125°11'2 2.5
2017-Oct-06 16:23N 48°24' W 125°12'1 1.0
2017-Oct-06 15:50N 48°24' W 125°13'1 3.5
2017-Oct-06 15:30N 48°23' W 125°14'4 8.6
2017-Oct-06 14:59N 48°26' W 125°10'1 2.0
2017-Oct-06 14:30N 48°25' W 125°10'3 5.0
2017-Oct-06 14:00N 48°24' W 125°06'4 8.2
2017-Oct-06 13:30N 48°24' W 125°00'4 8.2
2017-Oct-06 12:59N 48°24' W 124°54'4 8.1
2017-Oct-06 12:30N 48°24' W 124°48'4 8.6
2017-Oct-06 11:59N 48°24' W 124°41'3 6.6
2017-Oct-06 11:30N 48°24' W 124°36'2 3.3
2017-Oct-06 11:00N 48°22' W 124°37'0 0.0
2017-Oct-06 10:30N 48°22' W 124°37'0 0.0
2017-Oct-06 10:00N 48°22' W 124°37'0 0.0
2017-Oct-06 09:30N 48°22' W 124°37'0 0.0
2017-Oct-06 09:00N 48°22' W 124°37'0 0.0
2017-Oct-06 08:30N 48°22' W 124°37'0 0.0
2017-Oct-06 08:00N 48°22' W 124°37'0 0.0
2017-Oct-06 07:30N 48°22' W 124°37'0 0.0
2017-Oct-06 07:00N 48°22' W 124°37'0 0.0
2017-Oct-06 06:30N 48°22' W 124°37'0 0.0
2017-Oct-06 06:00N 48°22' W 124°37'0 0.0
2017-Oct-06 05:30N 48°22' W 124°37'0 0.0
2017-Oct-06 05:00N 48°22' W 124°37'0 0.0
2017-Oct-06 04:30N 48°22' W 124°37'0 0.0
2017-Oct-06 04:00N 48°22' W 124°37'0 0.0
2017-Oct-06 03:30N 48°22' W 124°37'0 0.0
2017-Oct-06 03:00N 48°22' W 124°37'0 0.0
2017-Oct-06 02:30N 48°22' W 124°37'0 0.0
2017-Oct-06 02:00N 48°22' W 124°37'0 0.0
2017-Oct-06 01:30N 48°22' W 124°37'0 0.0
2017-Oct-06 01:00N 48°22' W 124°37'0 0.0
2017-Oct-06 00:30N 48°22' W 124°37'0 0.0
2017-Oct-06 00:00N 48°22' W 124°37'0 0.0
2017-Oct-05 23:30N 48°22' W 124°37'0 0.0
2017-Oct-05 23:00N 48°22' W 124°37'0 0.0
2017-Oct-05 22:30N 48°22' W 124°37'0 0.0
2017-Oct-05 22:00N 48°22' W 124°37'0 0.0
2017-Oct-05 21:30N 48°22' W 124°37'0 0.0
2017-Oct-05 21:00N 48°22' W 124°37'0 0.0
2017-Oct-05 20:30N 48°22' W 124°37'0 0.0
2017-Oct-05 20:00N 48°22' W 124°37'0 0.0
2017-Oct-05 19:30N 48°22' W 124°37'0 0.0
2017-Oct-05 19:00N 48°22' W 124°37'0 0.0
2017-Oct-05 18:30N 48°22' W 124°37'0 0.0
2017-Oct-05 18:00N 48°22' W 124°37'0 0.0
2017-Oct-05 17:30N 48°22' W 124°37'0 0.0
2017-Oct-05 17:00N 48°22' W 124°37'0 0.0
2017-Oct-05 15:30N 48°22' W 124°37'0 0.0
2017-Oct-05 15:00N 48°22' W 124°37'0 0.0
2017-Oct-05 14:30N 48°22' W 124°37'0 0.0
2017-Oct-05 14:00N 48°22' W 124°37'0 0.0
2017-Oct-05 13:30N 48°22' W 124°37'0 0.0
2017-Oct-05 13:00N 48°22' W 124°37'0 0.0
2017-Oct-05 12:30N 48°22' W 124°37'0 0.0
2017-Oct-05 12:00N 48°22' W 124°37'0 0.0
2017-Oct-05 11:30N 48°22' W 124°37'0 0.0
2017-Oct-05 11:00N 48°22' W 124°37'0 0.0
2017-Oct-05 10:30N 48°22' W 124°37'0 0.0
2017-Oct-05 10:00N 48°22' W 124°37'0 0.0
2017-Oct-05 09:30N 48°22' W 124°37'0 0.0
2017-Oct-05 09:00N 48°22' W 124°37'0 0.0
2017-Oct-05 08:30N 48°22' W 124°37'0 0.0
2017-Oct-05 08:00N 48°22' W 124°37'0 0.0
2017-Oct-05 07:30N 48°22' W 124°37'0 0.0
2017-Oct-05 07:00N 48°22' W 124°37'0 0.0
2017-Oct-05 06:30N 48°22' W 124°37'0 0.0
2017-Oct-05 06:00N 48°22' W 124°37'0 0.0
2017-Oct-05 05:30N 48°22' W 124°37'0 0.0
2017-Oct-05 05:00N 48°22' W 124°37'0 0.0
2017-Oct-05 04:30N 48°22' W 124°37'0 0.0
2017-Oct-05 04:00N 48°22' W 124°37'0 0.0
2017-Oct-05 03:30N 48°22' W 124°37'0 0.0
2017-Oct-05 03:00N 48°22' W 124°37'0 0.0
2017-Oct-05 02:30N 48°22' W 124°37'0 0.0
2017-Oct-05 02:00N 48°22' W 124°37'0 0.0
2017-Oct-05 01:30N 48°22' W 124°37'0 0.0
2017-Oct-05 01:00N 48°22' W 124°37'0 0.0
2017-Oct-05 00:30N 48°22' W 124°37'0 0.0
2017-Oct-05 00:00N 48°22' W 124°37'0 0.0
2017-Oct-04 23:30N 48°22' W 124°37'0 0.0
2017-Oct-04 23:00N 48°22' W 124°37'0 0.0
2017-Oct-04 22:30N 48°22' W 124°37'0 0.0
2017-Oct-04 22:00N 48°22' W 124°37'0 0.0
2017-Oct-04 21:30N 48°22' W 124°37'0 0.0
2017-Oct-04 21:00N 48°22' W 124°37'0 0.0
2017-Oct-04 20:30N 48°22' W 124°37'0 0.0
2017-Oct-04 20:00N 48°22' W 124°37'0 0.0
2017-Oct-04 19:30N 48°22' W 124°37'0 0.0
2017-Oct-04 19:00N 48°22' W 124°37'0 0.0
2017-Oct-04 18:30N 48°22' W 124°37'0 0.0
2017-Oct-04 18:00N 48°22' W 124°37'0 0.0
2017-Oct-04 17:30N 48°22' W 124°37'0 0.0
2017-Oct-04 17:00N 48°22' W 124°37'0 0.0
2017-Oct-04 16:30N 48°22' W 124°37'0 0.0
2017-Oct-04 16:00N 48°22' W 124°37'0 0.0
2017-Oct-04 15:30N 48°22' W 124°37'0 0.0
2017-Oct-04 15:00N 48°22' W 124°37'0 0.0
2017-Oct-04 14:30N 48°22' W 124°37'0 0.0
2017-Oct-04 14:00N 48°22' W 124°37'0 0.0
2017-Oct-04 13:30N 48°22' W 124°37'0 0.0
2017-Oct-04 13:00N 48°22' W 124°37'0 0.0
2017-Oct-04 12:30N 48°22' W 124°37'0 0.0
2017-Oct-04 12:00N 48°22' W 124°37'  

Dump ship's entire track history